sensor_id;sensor_type;location;lat;lon;timestamp;P1;durP1;ratioP1;P2;durP2;ratioP2
46006;SDS011;31738;50.188;8.524;2023-11-21T00:00:15;11.50;;;4.88;;
46006;SDS011;31738;50.188;8.524;2023-11-21T00:02:41;10.55;;;4.90;;
46006;SDS011;31738;50.188;8.524;2023-11-21T00:05:07;13.52;;;5.30;;
46006;SDS011;31738;50.188;8.524;2023-11-21T00:07:34;10.65;;;5.03;;
46006;SDS011;31738;50.188;8.524;2023-11-21T00:10:01;17.48;;;5.50;;
46006;SDS011;31738;50.188;8.524;2023-11-21T00:12:27;14.88;;;5.90;;
46006;SDS011;31738;50.188;8.524;2023-11-21T00:14:54;12.52;;;5.25;;
46006;SDS011;31738;50.188;8.524;2023-11-21T00:17:20;11.15;;;4.95;;
46006;SDS011;31738;50.188;8.524;2023-11-21T00:19:45;12.00;;;5.15;;
46006;SDS011;31738;50.188;8.524;2023-11-21T00:22:11;11.70;;;5.78;;
46006;SDS011;31738;50.188;8.524;2023-11-21T00:24:36;14.05;;;5.95;;
46006;SDS011;31738;50.188;8.524;2023-11-21T00:27:02;11.93;;;5.70;;
46006;SDS011;31738;50.188;8.524;2023-11-21T00:29:27;13.73;;;6.10;;
46006;SDS011;31738;50.188;8.524;2023-11-21T00:31:54;13.88;;;5.65;;
46006;SDS011;31738;50.188;8.524;2023-11-21T00:34:19;13.57;;;6.53;;
46006;SDS011;31738;50.188;8.524;2023-11-21T00:36:45;17.50;;;6.10;;
46006;SDS011;31738;50.188;8.524;2023-11-21T00:39:10;15.38;;;5.95;;
46006;SDS011;31738;50.188;8.524;2023-11-21T00:41:37;13.90;;;5.82;;
46006;SDS011;31738;50.188;8.524;2023-11-21T00:44:02;15.55;;;5.80;;
46006;SDS011;31738;50.188;8.524;2023-11-21T00:46:28;14.57;;;5.85;;
46006;SDS011;31738;50.188;8.524;2023-11-21T00:48:54;10.40;;;5.32;;
46006;SDS011;31738;50.188;8.524;2023-11-21T00:51:20;12.40;;;5.35;;
46006;SDS011;31738;50.188;8.524;2023-11-21T00:53:47;11.70;;;6.03;;
46006;SDS011;31738;50.188;8.524;2023-11-21T00:56:13;13.15;;;5.20;;
46006;SDS011;31738;50.188;8.524;2023-11-21T00:58:39;18.75;;;5.78;;
46006;SDS011;31738;50.188;8.524;2023-11-21T01:01:09;8.80;;;4.50;;
46006;SDS011;31738;50.188;8.524;2023-11-21T01:03:34;9.73;;;4.13;;
46006;SDS011;31738;50.188;8.524;2023-11-21T01:06:00;11.57;;;4.47;;
46006;SDS011;31738;50.188;8.524;2023-11-21T01:08:25;10.20;;;4.78;;
46006;SDS011;31738;50.188;8.524;2023-11-21T01:10:51;11.57;;;5.20;;
46006;SDS011;31738;50.188;8.524;2023-11-21T01:13:16;8.43;;;4.20;;
46006;SDS011;31738;50.188;8.524;2023-11-21T01:15:42;11.05;;;4.80;;
46006;SDS011;31738;50.188;8.524;2023-11-21T01:18:07;11.52;;;4.55;;
46006;SDS011;31738;50.188;8.524;2023-11-21T01:20:34;9.05;;;4.50;;
46006;SDS011;31738;50.188;8.524;2023-11-21T01:22:59;11.23;;;4.18;;
46006;SDS011;31738;50.188;8.524;2023-11-21T01:25:26;10.80;;;4.20;;
46006;SDS011;31738;50.188;8.524;2023-11-21T01:27:52;10.82;;;4.57;;
46006;SDS011;31738;50.188;8.524;2023-11-21T01:30:17;12.18;;;4.55;;
46006;SDS011;31738;50.188;8.524;2023-11-21T01:32:43;8.88;;;4.45;;
46006;SDS011;31738;50.188;8.524;2023-11-21T01:35:09;9.63;;;4.65;;
46006;SDS011;31738;50.188;8.524;2023-11-21T01:37:35;8.52;;;3.88;;
46006;SDS011;31738;50.188;8.524;2023-11-21T01:40:02;10.07;;;4.25;;
46006;SDS011;31738;50.188;8.524;2023-11-21T01:42:32;10.73;;;4.53;;
46006;SDS011;31738;50.188;8.524;2023-11-21T01:44:59;11.90;;;4.43;;
46006;SDS011;31738;50.188;8.524;2023-11-21T01:47:24;9.35;;;3.88;;
46006;SDS011;31738;50.188;8.524;2023-11-21T01:49:50;6.82;;;3.08;;
46006;SDS011;31738;50.188;8.524;2023-11-21T01:52:16;7.18;;;3.50;;
46006;SDS011;31738;50.188;8.524;2023-11-21T01:54:43;7.82;;;3.45;;
46006;SDS011;31738;50.188;8.524;2023-11-21T01:57:09;7.57;;;3.25;;
46006;SDS011;31738;50.188;8.524;2023-11-21T01:59:35;6.28;;;3.53;;
46006;SDS011;31738;50.188;8.524;2023-11-21T02:02:06;10.05;;;3.15;;
46006;SDS011;31738;50.188;8.524;2023-11-21T02:04:33;5.15;;;3.13;;
46006;SDS011;31738;50.188;8.524;2023-11-21T02:06:59;5.35;;;2.70;;
46006;SDS011;31738;50.188;8.524;2023-11-21T02:09:28;6.75;;;3.28;;
46006;SDS011;31738;50.188;8.524;2023-11-21T02:11:58;8.10;;;3.42;;
46006;SDS011;31738;50.188;8.524;2023-11-21T02:14:24;11.43;;;4.90;;
46006;SDS011;31738;50.188;8.524;2023-11-21T02:16:52;6.53;;;3.03;;
46006;SDS011;31738;50.188;8.524;2023-11-21T02:19:19;7.85;;;3.50;;
46006;SDS011;31738;50.188;8.524;2023-11-21T02:21:51;5.13;;;2.85;;
46006;SDS011;31738;50.188;8.524;2023-11-21T02:24:21;7.53;;;3.10;;
46006;SDS011;31738;50.188;8.524;2023-11-21T02:26:50;6.90;;;2.72;;
46006;SDS011;31738;50.188;8.524;2023-11-21T02:29:17;11.52;;;3.22;;
46006;SDS011;31738;50.188;8.524;2023-11-21T02:31:45;4.85;;;2.80;;
46006;SDS011;31738;50.188;8.524;2023-11-21T02:34:15;8.63;;;3.35;;
46006;SDS011;31738;50.188;8.524;2023-11-21T02:36:42;4.90;;;2.63;;
46006;SDS011;31738;50.188;8.524;2023-11-21T02:39:11;4.20;;;2.38;;
46006;SDS011;31738;50.188;8.524;2023-11-21T02:41:39;5.80;;;2.55;;
46006;SDS011;31738;50.188;8.524;2023-11-21T02:44:05;5.85;;;2.78;;
46006;SDS011;31738;50.188;8.524;2023-11-21T02:46:34;5.85;;;2.63;;
46006;SDS011;31738;50.188;8.524;2023-11-21T02:49:01;7.40;;;2.42;;
46006;SDS011;31738;50.188;8.524;2023-11-21T02:51:35;6.82;;;2.55;;
46006;SDS011;31738;50.188;8.524;2023-11-21T02:54:01;6.72;;;2.78;;
46006;SDS011;31738;50.188;8.524;2023-11-21T02:56:30;5.82;;;2.45;;
46006;SDS011;31738;50.188;8.524;2023-11-21T02:58:56;6.93;;;2.65;;
46006;SDS011;31738;50.188;8.524;2023-11-21T03:01:21;5.57;;;2.70;;
46006;SDS011;31738;50.188;8.524;2023-11-21T03:03:48;7.43;;;3.00;;
46006;SDS011;31738;50.188;8.524;2023-11-21T03:06:16;8.30;;;2.92;;
46006;SDS011;31738;50.188;8.524;2023-11-21T03:08:42;5.28;;;2.72;;
46006;SDS011;31738;50.188;8.524;2023-11-21T03:11:08;6.22;;;2.50;;
46006;SDS011;31738;50.188;8.524;2023-11-21T03:13:33;5.22;;;2.78;;
46006;SDS011;31738;50.188;8.524;2023-11-21T03:15:59;5.88;;;3.15;;
46006;SDS011;31738;50.188;8.524;2023-11-21T03:18:25;7.22;;;3.13;;
46006;SDS011;31738;50.188;8.524;2023-11-21T03:20:52;6.95;;;2.95;;
46006;SDS011;31738;50.188;8.524;2023-11-21T03:23:17;8.00;;;3.47;;
46006;SDS011;31738;50.188;8.524;2023-11-21T03:25:43;6.28;;;3.03;;
46006;SDS011;31738;50.188;8.524;2023-11-21T03:28:08;8.73;;;3.70;;
46006;SDS011;31738;50.188;8.524;2023-11-21T03:30:35;10.73;;;3.47;;
46006;SDS011;31738;50.188;8.524;2023-11-21T03:33:00;7.78;;;3.25;;
46006;SDS011;31738;50.188;8.524;2023-11-21T03:35:26;7.03;;;3.33;;
46006;SDS011;31738;50.188;8.524;2023-11-21T03:37:51;6.50;;;3.55;;
46006;SDS011;31738;50.188;8.524;2023-11-21T03:40:17;8.07;;;3.78;;
46006;SDS011;31738;50.188;8.524;2023-11-21T03:42:42;7.40;;;3.42;;
46006;SDS011;31738;50.188;8.524;2023-11-21T03:45:08;9.73;;;3.53;;
46006;SDS011;31738;50.188;8.524;2023-11-21T03:47:34;7.45;;;3.75;;
46006;SDS011;31738;50.188;8.524;2023-11-21T03:50:00;8.43;;;3.58;;
46006;SDS011;31738;50.188;8.524;2023-11-21T03:52:26;6.35;;;3.17;;
46006;SDS011;31738;50.188;8.524;2023-11-21T03:54:52;6.53;;;3.35;;
46006;SDS011;31738;50.188;8.524;2023-11-21T03:57:17;7.65;;;3.65;;
46006;SDS011;31738;50.188;8.524;2023-11-21T03:59:43;8.57;;;4.03;;
46006;SDS011;31738;50.188;8.524;2023-11-21T04:02:09;7.38;;;3.53;;
46006;SDS011;31738;50.188;8.524;2023-11-21T04:04:35;7.30;;;3.13;;
46006;SDS011;31738;50.188;8.524;2023-11-21T04:07:01;7.78;;;3.97;;
46006;SDS011;31738;50.188;8.524;2023-11-21T04:09:27;6.78;;;3.28;;
46006;SDS011;31738;50.188;8.524;2023-11-21T04:11:53;8.52;;;3.78;;
46006;SDS011;31738;50.188;8.524;2023-11-21T04:14:18;5.63;;;2.95;;
46006;SDS011;31738;50.188;8.524;2023-11-21T04:16:44;9.48;;;3.38;;
46006;SDS011;31738;50.188;8.524;2023-11-21T04:19:10;8.30;;;3.25;;
46006;SDS011;31738;50.188;8.524;2023-11-21T04:21:38;6.50;;;3.03;;
46006;SDS011;31738;50.188;8.524;2023-11-21T04:24:03;7.30;;;2.80;;
46006;SDS011;31738;50.188;8.524;2023-11-21T04:26:29;7.85;;;2.97;;
46006;SDS011;31738;50.188;8.524;2023-11-21T04:28:54;6.97;;;3.40;;
46006;SDS011;31738;50.188;8.524;2023-11-21T04:31:20;9.63;;;3.45;;
46006;SDS011;31738;50.188;8.524;2023-11-21T04:33:46;6.25;;;2.88;;
46006;SDS011;31738;50.188;8.524;2023-11-21T04:36:11;9.32;;;3.38;;
46006;SDS011;31738;50.188;8.524;2023-11-21T04:38:37;7.45;;;3.33;;
46006;SDS011;31738;50.188;8.524;2023-11-21T04:41:02;7.22;;;3.63;;
46006;SDS011;31738;50.188;8.524;2023-11-21T04:43:28;10.43;;;3.75;;
46006;SDS011;31738;50.188;8.524;2023-11-21T04:45:54;6.38;;;3.33;;
46006;SDS011;31738;50.188;8.524;2023-11-21T04:48:20;8.43;;;5.43;;
46006;SDS011;31738;50.188;8.524;2023-11-21T04:50:45;8.38;;;3.83;;
46006;SDS011;31738;50.188;8.524;2023-11-21T04:53:11;8.38;;;4.00;;
46006;SDS011;31738;50.188;8.524;2023-11-21T04:55:39;13.35;;;4.40;;
46006;SDS011;31738;50.188;8.524;2023-11-21T04:58:06;13.32;;;5.00;;
46006;SDS011;31738;50.188;8.524;2023-11-21T05:00:31;13.90;;;5.07;;
46006;SDS011;31738;50.188;8.524;2023-11-21T05:02:57;16.02;;;5.35;;
46006;SDS011;31738;50.188;8.524;2023-11-21T05:05:22;12.93;;;4.80;;
46006;SDS011;31738;50.188;8.524;2023-11-21T05:07:47;16.92;;;5.97;;
46006;SDS011;31738;50.188;8.524;2023-11-21T05:10:14;13.35;;;5.18;;
46006;SDS011;31738;50.188;8.524;2023-11-21T05:12:40;17.70;;;5.88;;
46006;SDS011;31738;50.188;8.524;2023-11-21T05:15:07;11.90;;;5.35;;
46006;SDS011;31738;50.188;8.524;2023-11-21T05:17:35;13.18;;;5.38;;
46006;SDS011;31738;50.188;8.524;2023-11-21T05:20:01;14.00;;;5.15;;
46006;SDS011;31738;50.188;8.524;2023-11-21T05:22:29;13.40;;;5.10;;
46006;SDS011;31738;50.188;8.524;2023-11-21T05:24:55;9.50;;;4.35;;
46006;SDS011;31738;50.188;8.524;2023-11-21T05:27:20;12.38;;;4.85;;
46006;SDS011;31738;50.188;8.524;2023-11-21T05:29:46;11.50;;;4.28;;
46006;SDS011;31738;50.188;8.524;2023-11-21T05:32:11;10.55;;;4.05;;
46006;SDS011;31738;50.188;8.524;2023-11-21T05:34:37;11.07;;;4.07;;
46006;SDS011;31738;50.188;8.524;2023-11-21T05:37:02;9.52;;;4.18;;
46006;SDS011;31738;50.188;8.524;2023-11-21T05:39:28;9.13;;;3.38;;
46006;SDS011;31738;50.188;8.524;2023-11-21T05:41:53;7.18;;;3.10;;
46006;SDS011;31738;50.188;8.524;2023-11-21T05:44:19;10.50;;;3.22;;
46006;SDS011;31738;50.188;8.524;2023-11-21T05:46:44;6.32;;;2.67;;
46006;SDS011;31738;50.188;8.524;2023-11-21T05:49:10;6.57;;;2.92;;
46006;SDS011;31738;50.188;8.524;2023-11-21T05:51:36;7.18;;;2.92;;
46006;SDS011;31738;50.188;8.524;2023-11-21T05:54:03;7.20;;;2.40;;
46006;SDS011;31738;50.188;8.524;2023-11-21T05:56:29;7.45;;;2.30;;
46006;SDS011;31738;50.188;8.524;2023-11-21T05:58:54;6.32;;;1.95;;
46006;SDS011;31738;50.188;8.524;2023-11-21T06:01:19;3.58;;;2.03;;
46006;SDS011;31738;50.188;8.524;2023-11-21T06:03:45;7.95;;;1.92;;
46006;SDS011;31738;50.188;8.524;2023-11-21T06:06:10;6.03;;;2.05;;
46006;SDS011;31738;50.188;8.524;2023-11-21T06:08:36;6.97;;;1.70;;
46006;SDS011;31738;50.188;8.524;2023-11-21T06:11:01;4.68;;;1.45;;
46006;SDS011;31738;50.188;8.524;2023-11-21T06:13:27;4.38;;;1.65;;
46006;SDS011;31738;50.188;8.524;2023-11-21T06:15:53;3.58;;;1.48;;
46006;SDS011;31738;50.188;8.524;2023-11-21T06:18:18;5.53;;;1.15;;
46006;SDS011;31738;50.188;8.524;2023-11-21T06:20:47;2.30;;;1.17;;
46006;SDS011;31738;50.188;8.524;2023-11-21T06:23:12;3.20;;;1.38;;
46006;SDS011;31738;50.188;8.524;2023-11-21T06:25:39;2.35;;;1.20;;
46006;SDS011;31738;50.188;8.524;2023-11-21T06:28:05;3.78;;;1.45;;
46006;SDS011;31738;50.188;8.524;2023-11-21T06:30:31;1.63;;;0.88;;
46006;SDS011;31738;50.188;8.524;2023-11-21T06:32:57;2.45;;;1.08;;
46006;SDS011;31738;50.188;8.524;2023-11-21T06:35:22;8.00;;;1.33;;
46006;SDS011;31738;50.188;8.524;2023-11-21T06:37:48;3.17;;;1.50;;
46006;SDS011;31738;50.188;8.524;2023-11-21T06:40:14;2.80;;;1.05;;
46006;SDS011;31738;50.188;8.524;2023-11-21T06:42:46;2.95;;;1.35;;
46006;SDS011;31738;50.188;8.524;2023-11-21T06:45:12;2.90;;;1.42;;
46006;SDS011;31738;50.188;8.524;2023-11-21T06:47:38;4.68;;;1.40;;
46006;SDS011;31738;50.188;8.524;2023-11-21T06:50:04;3.58;;;1.35;;
46006;SDS011;31738;50.188;8.524;2023-11-21T06:52:31;4.15;;;1.50;;
46006;SDS011;31738;50.188;8.524;2023-11-21T06:54:57;2.58;;;1.45;;
46006;SDS011;31738;50.188;8.524;2023-11-21T06:57:23;3.65;;;1.40;;
46006;SDS011;31738;50.188;8.524;2023-11-21T06:59:48;5.50;;;1.58;;
46006;SDS011;31738;50.188;8.524;2023-11-21T07:02:16;5.20;;;1.20;;
46006;SDS011;31738;50.188;8.524;2023-11-21T07:04:44;4.43;;;1.35;;
46006;SDS011;31738;50.188;8.524;2023-11-21T07:07:11;4.45;;;1.52;;
46006;SDS011;31738;50.188;8.524;2023-11-21T07:09:37;2.88;;;1.02;;
46006;SDS011;31738;50.188;8.524;2023-11-21T07:12:02;2.90;;;1.42;;
46006;SDS011;31738;50.188;8.524;2023-11-21T07:14:29;6.78;;;1.60;;
46006;SDS011;31738;50.188;8.524;2023-11-21T07:16:54;5.50;;;1.45;;
46006;SDS011;31738;50.188;8.524;2023-11-21T07:19:20;6.93;;;1.70;;
46006;SDS011;31738;50.188;8.524;2023-11-21T07:21:46;3.67;;;1.80;;
46006;SDS011;31738;50.188;8.524;2023-11-21T07:24:11;3.28;;;1.52;;
46006;SDS011;31738;50.188;8.524;2023-11-21T07:26:37;4.93;;;2.08;;
46006;SDS011;31738;50.188;8.524;2023-11-21T07:29:02;6.43;;;2.10;;
46006;SDS011;31738;50.188;8.524;2023-11-21T07:31:28;7.63;;;2.22;;
46006;SDS011;31738;50.188;8.524;2023-11-21T07:33:54;5.05;;;1.90;;
46006;SDS011;31738;50.188;8.524;2023-11-21T07:36:22;8.05;;;2.22;;
46006;SDS011;31738;50.188;8.524;2023-11-21T07:38:48;7.07;;;2.40;;
46006;SDS011;31738;50.188;8.524;2023-11-21T07:41:14;7.25;;;2.65;;
46006;SDS011;31738;50.188;8.524;2023-11-21T07:43:41;4.18;;;2.10;;
46006;SDS011;31738;50.188;8.524;2023-11-21T07:46:07;6.15;;;2.50;;
46006;SDS011;31738;50.188;8.524;2023-11-21T07:48:33;5.45;;;2.30;;
46006;SDS011;31738;50.188;8.524;2023-11-21T07:50:59;6.13;;;2.58;;
46006;SDS011;31738;50.188;8.524;2023-11-21T07:53:25;7.18;;;2.28;;
46006;SDS011;31738;50.188;8.524;2023-11-21T07:55:54;5.80;;;2.55;;
46006;SDS011;31738;50.188;8.524;2023-11-21T07:58:20;5.80;;;2.60;;
46006;SDS011;31738;50.188;8.524;2023-11-21T08:00:45;6.90;;;2.45;;
46006;SDS011;31738;50.188;8.524;2023-11-21T08:03:13;5.88;;;2.30;;
46006;SDS011;31738;50.188;8.524;2023-11-21T08:05:39;5.43;;;2.17;;
46006;SDS011;31738;50.188;8.524;2023-11-21T08:08:04;7.05;;;2.50;;
46006;SDS011;31738;50.188;8.524;2023-11-21T08:10:30;9.60;;;2.60;;
46006;SDS011;31738;50.188;8.524;2023-11-21T08:12:55;5.53;;;2.35;;
46006;SDS011;31738;50.188;8.524;2023-11-21T08:15:21;5.40;;;2.38;;
46006;SDS011;31738;50.188;8.524;2023-11-21T08:17:46;6.88;;;2.60;;
46006;SDS011;31738;50.188;8.524;2023-11-21T08:20:12;7.03;;;2.38;;
46006;SDS011;31738;50.188;8.524;2023-11-21T08:22:41;4.65;;;2.08;;
46006;SDS011;31738;50.188;8.524;2023-11-21T08:25:07;10.85;;;3.53;;
46006;SDS011;31738;50.188;8.524;2023-11-21T08:27:33;4.78;;;2.80;;
46006;SDS011;31738;50.188;8.524;2023-11-21T08:30:00;5.20;;;2.85;;
46006;SDS011;31738;50.188;8.524;2023-11-21T08:32:28;10.50;;;3.45;;
46006;SDS011;31738;50.188;8.524;2023-11-21T08:34:57;8.38;;;3.38;;
46006;SDS011;31738;50.188;8.524;2023-11-21T08:37:23;6.15;;;2.90;;
46006;SDS011;31738;50.188;8.524;2023-11-21T08:39:49;7.07;;;3.15;;
46006;SDS011;31738;50.188;8.524;2023-11-21T08:42:14;9.35;;;3.10;;
46006;SDS011;31738;50.188;8.524;2023-11-21T08:44:40;10.77;;;3.20;;
46006;SDS011;31738;50.188;8.524;2023-11-21T08:47:06;6.55;;;3.33;;
46006;SDS011;31738;50.188;8.524;2023-11-21T08:49:32;6.95;;;3.53;;
46006;SDS011;31738;50.188;8.524;2023-11-21T08:51:58;8.52;;;3.47;;
46006;SDS011;31738;50.188;8.524;2023-11-21T08:54:25;11.73;;;3.70;;
46006;SDS011;31738;50.188;8.524;2023-11-21T08:56:54;10.50;;;4.13;;
46006;SDS011;31738;50.188;8.524;2023-11-21T08:59:20;7.55;;;3.53;;
46006;SDS011;31738;50.188;8.524;2023-11-21T09:01:46;11.65;;;3.55;;
46006;SDS011;31738;50.188;8.524;2023-11-21T09:04:12;8.90;;;3.97;;
46006;SDS011;31738;50.188;8.524;2023-11-21T09:06:38;9.88;;;3.70;;
46006;SDS011;31738;50.188;8.524;2023-11-21T09:09:05;10.07;;;3.90;;
46006;SDS011;31738;50.188;8.524;2023-11-21T09:11:34;10.18;;;3.63;;
46006;SDS011;31738;50.188;8.524;2023-11-21T09:14:00;5.57;;;2.90;;
46006;SDS011;31738;50.188;8.524;2023-11-21T09:16:26;5.72;;;3.17;;
46006;SDS011;31738;50.188;8.524;2023-11-21T09:18:51;7.25;;;3.28;;
46006;SDS011;31738;50.188;8.524;2023-11-21T09:21:17;7.38;;;3.03;;
46006;SDS011;31738;50.188;8.524;2023-11-21T09:23:46;8.45;;;3.05;;
46006;SDS011;31738;50.188;8.524;2023-11-21T09:26:13;7.47;;;3.30;;
46006;SDS011;31738;50.188;8.524;2023-11-21T09:28:41;9.35;;;3.17;;
46006;SDS011;31738;50.188;8.524;2023-11-21T09:31:11;8.50;;;3.83;;
46006;SDS011;31738;50.188;8.524;2023-11-21T09:33:37;9.52;;;3.40;;
46006;SDS011;31738;50.188;8.524;2023-11-21T09:36:03;9.57;;;3.40;;
46006;SDS011;31738;50.188;8.524;2023-11-21T09:38:30;11.23;;;3.30;;
46006;SDS011;31738;50.188;8.524;2023-11-21T09:40:56;6.07;;;3.50;;
46006;SDS011;31738;50.188;8.524;2023-11-21T09:43:24;13.60;;;3.25;;
46006;SDS011;31738;50.188;8.524;2023-11-21T09:45:56;6.22;;;3.00;;
46006;SDS011;31738;50.188;8.524;2023-11-21T09:48:26;9.23;;;3.65;;
46006;SDS011;31738;50.188;8.524;2023-11-21T09:50:51;7.15;;;3.38;;
46006;SDS011;31738;50.188;8.524;2023-11-21T09:53:19;9.20;;;3.15;;
46006;SDS011;31738;50.188;8.524;2023-11-21T09:55:51;9.82;;;3.42;;
46006;SDS011;31738;50.188;8.524;2023-11-21T09:58:17;11.98;;;3.30;;
46006;SDS011;31738;50.188;8.524;2023-11-21T10:00:45;9.82;;;3.92;;
46006;SDS011;31738;50.188;8.524;2023-11-21T10:03:11;7.07;;;3.13;;
46006;SDS011;31738;50.188;8.524;2023-11-21T10:05:38;11.23;;;3.33;;
46006;SDS011;31738;50.188;8.524;2023-11-21T10:08:06;15.00;;;3.70;;
46006;SDS011;31738;50.188;8.524;2023-11-21T10:10:35;7.72;;;3.33;;
46006;SDS011;31738;50.188;8.524;2023-11-21T10:13:10;9.13;;;3.58;;
46006;SDS011;31738;50.188;8.524;2023-11-21T10:15:37;9.35;;;3.10;;
46006;SDS011;31738;50.188;8.524;2023-11-21T10:18:03;6.18;;;3.22;;
46006;SDS011;31738;50.188;8.524;2023-11-21T10:20:31;7.72;;;3.85;;
46006;SDS011;31738;50.188;8.524;2023-11-21T10:22:59;6.70;;;3.20;;
46006;SDS011;31738;50.188;8.524;2023-11-21T10:25:26;9.88;;;3.40;;
46006;SDS011;31738;50.188;8.524;2023-11-21T10:27:56;9.27;;;3.33;;
46006;SDS011;31738;50.188;8.524;2023-11-21T10:30:27;6.63;;;3.50;;
46006;SDS011;31738;50.188;8.524;2023-11-21T10:32:58;8.05;;;3.28;;
46006;SDS011;31738;50.188;8.524;2023-11-21T10:35:25;13.73;;;3.20;;
46006;SDS011;31738;50.188;8.524;2023-11-21T10:38:03;12.10;;;3.60;;
46006;SDS011;31738;50.188;8.524;2023-11-21T10:40:29;6.30;;;3.30;;
46006;SDS011;31738;50.188;8.524;2023-11-21T10:42:54;7.30;;;3.30;;
46006;SDS011;31738;50.188;8.524;2023-11-21T10:45:31;7.55;;;3.42;;
46006;SDS011;31738;50.188;8.524;2023-11-21T10:47:57;10.68;;;3.92;;
46006;SDS011;31738;50.188;8.524;2023-11-21T10:50:23;12.00;;;3.05;;
46006;SDS011;31738;50.188;8.524;2023-11-21T10:52:48;9.43;;;3.13;;
46006;SDS011;31738;50.188;8.524;2023-11-21T10:55:17;8.40;;;2.97;;
46006;SDS011;31738;50.188;8.524;2023-11-21T10:57:53;7.72;;;3.00;;
46006;SDS011;31738;50.188;8.524;2023-11-21T11:00:30;7.93;;;3.10;;
46006;SDS011;31738;50.188;8.524;2023-11-21T11:05:31;6.30;;;2.85;;
46006;SDS011;31738;50.188;8.524;2023-11-21T11:10:45;4.53;;;2.17;;
46006;SDS011;31738;50.188;8.524;2023-11-21T11:13:13;7.70;;;2.30;;
46006;SDS011;31738;50.188;8.524;2023-11-21T11:15:40;3.67;;;2.03;;
46006;SDS011;31738;50.188;8.524;2023-11-21T11:18:06;7.45;;;2.13;;
46006;SDS011;31738;50.188;8.524;2023-11-21T11:20:38;2.78;;;1.88;;
46006;SDS011;31738;50.188;8.524;2023-11-21T11:26:16;5.13;;;2.40;;
46006;SDS011;31738;50.188;8.524;2023-11-21T11:28:52;4.20;;;2.42;;
46006;SDS011;31738;50.188;8.524;2023-11-21T11:31:28;5.82;;;2.28;;
46006;SDS011;31738;50.188;8.524;2023-11-21T11:34:17;7.20;;;2.20;;
46006;SDS011;31738;50.188;8.524;2023-11-21T11:36:54;6.55;;;2.08;;
46006;SDS011;31738;50.188;8.524;2023-11-21T11:39:38;5.60;;;2.28;;
46006;SDS011;31738;50.188;8.524;2023-11-21T11:42:14;4.47;;;2.15;;
46006;SDS011;31738;50.188;8.524;2023-11-21T11:47:17;4.88;;;1.63;;
46006;SDS011;31738;50.188;8.524;2023-11-21T11:49:59;3.70;;;1.77;;
46006;SDS011;31738;50.188;8.524;2023-11-21T11:52:47;4.30;;;2.03;;
46006;SDS011;31738;50.188;8.524;2023-11-21T11:55:19;9.45;;;2.03;;
46006;SDS011;31738;50.188;8.524;2023-11-21T11:57:52;3.80;;;2.00;;
46006;SDS011;31738;50.188;8.524;2023-11-21T12:00:22;4.22;;;1.83;;
46006;SDS011;31738;50.188;8.524;2023-11-21T12:03:00;6.40;;;2.47;;
46006;SDS011;31738;50.188;8.524;2023-11-21T12:05:33;5.22;;;2.10;;
46006;SDS011;31738;50.188;8.524;2023-11-21T12:08:10;6.50;;;2.08;;
46006;SDS011;31738;50.188;8.524;2023-11-21T12:10:37;5.47;;;2.72;;
46006;SDS011;31738;50.188;8.524;2023-11-21T12:13:11;4.88;;;2.22;;
46006;SDS011;31738;50.188;8.524;2023-11-21T12:15:42;4.95;;;2.20;;
46006;SDS011;31738;50.188;8.524;2023-11-21T12:18:11;4.80;;;2.17;;
46006;SDS011;31738;50.188;8.524;2023-11-21T12:20:39;4.40;;;2.30;;
46006;SDS011;31738;50.188;8.524;2023-11-21T12:25:43;5.65;;;2.30;;
46006;SDS011;31738;50.188;8.524;2023-11-21T12:28:08;4.35;;;2.00;;
46006;SDS011;31738;50.188;8.524;2023-11-21T12:30:35;5.05;;;2.25;;
46006;SDS011;31738;50.188;8.524;2023-11-21T12:33:06;6.28;;;2.55;;
46006;SDS011;31738;50.188;8.524;2023-11-21T12:35:41;7.90;;;2.03;;
46006;SDS011;31738;50.188;8.524;2023-11-21T12:38:34;5.13;;;2.80;;
46006;SDS011;31738;50.188;8.524;2023-11-21T12:41:00;7.18;;;2.83;;
46006;SDS011;31738;50.188;8.524;2023-11-21T12:43:26;6.28;;;2.50;;
46006;SDS011;31738;50.188;8.524;2023-11-21T12:45:51;4.97;;;2.33;;
46006;SDS011;31738;50.188;8.524;2023-11-21T12:48:32;4.57;;;2.25;;
46006;SDS011;31738;50.188;8.524;2023-11-21T12:50:57;8.63;;;2.35;;
46006;SDS011;31738;50.188;8.524;2023-11-21T12:53:25;5.22;;;2.40;;
46006;SDS011;31738;50.188;8.524;2023-11-21T12:55:51;6.55;;;2.50;;
46006;SDS011;31738;50.188;8.524;2023-11-21T12:58:16;4.82;;;2.72;;
46006;SDS011;31738;50.188;8.524;2023-11-21T13:00:46;5.05;;;2.30;;
46006;SDS011;31738;50.188;8.524;2023-11-21T13:03:14;5.72;;;2.70;;
46006;SDS011;31738;50.188;8.524;2023-11-21T13:05:43;5.97;;;2.50;;
46006;SDS011;31738;50.188;8.524;2023-11-21T13:08:12;7.20;;;2.58;;
46006;SDS011;31738;50.188;8.524;2023-11-21T13:10:39;5.32;;;2.40;;
46006;SDS011;31738;50.188;8.524;2023-11-21T13:13:08;5.28;;;2.70;;
46006;SDS011;31738;50.188;8.524;2023-11-21T13:15:34;5.68;;;2.60;;
46006;SDS011;31738;50.188;8.524;2023-11-21T13:18:05;4.65;;;2.28;;
46006;SDS011;31738;50.188;8.524;2023-11-21T13:20:31;7.47;;;2.97;;
46006;SDS011;31738;50.188;8.524;2023-11-21T13:22:57;3.92;;;2.47;;
46006;SDS011;31738;50.188;8.524;2023-11-21T13:25:27;5.53;;;3.15;;
46006;SDS011;31738;50.188;8.524;2023-11-21T13:27:58;11.80;;;3.00;;
46006;SDS011;31738;50.188;8.524;2023-11-21T13:30:24;6.40;;;2.83;;
46006;SDS011;31738;50.188;8.524;2023-11-21T13:33:01;8.27;;;2.88;;
46006;SDS011;31738;50.188;8.524;2023-11-21T13:35:36;7.73;;;2.47;;
46006;SDS011;31738;50.188;8.524;2023-11-21T13:38:16;4.20;;;2.30;;
46006;SDS011;31738;50.188;8.524;2023-11-21T13:40:47;6.47;;;2.40;;
46006;SDS011;31738;50.188;8.524;2023-11-21T13:43:17;3.80;;;2.30;;
46006;SDS011;31738;50.188;8.524;2023-11-21T13:45:46;4.05;;;2.33;;
46006;SDS011;31738;50.188;8.524;2023-11-21T13:48:12;9.38;;;2.65;;
46006;SDS011;31738;50.188;8.524;2023-11-21T13:50:50;5.25;;;2.38;;
46006;SDS011;31738;50.188;8.524;2023-11-21T13:53:46;5.20;;;2.38;;
46006;SDS011;31738;50.188;8.524;2023-11-21T13:56:15;4.50;;;2.40;;
46006;SDS011;31738;50.188;8.524;2023-11-21T13:58:49;5.97;;;2.40;;
46006;SDS011;31738;50.188;8.524;2023-11-21T14:01:19;8.07;;;2.45;;
46006;SDS011;31738;50.188;8.524;2023-11-21T14:03:55;6.50;;;2.90;;
46006;SDS011;31738;50.188;8.524;2023-11-21T14:06:49;6.20;;;2.13;;
46006;SDS011;31738;50.188;8.524;2023-11-21T14:09:19;6.07;;;2.70;;
46006;SDS011;31738;50.188;8.524;2023-11-21T14:11:50;6.25;;;2.70;;
46006;SDS011;31738;50.188;8.524;2023-11-21T14:14:21;6.90;;;2.80;;
46006;SDS011;31738;50.188;8.524;2023-11-21T14:16:47;5.88;;;2.95;;
46006;SDS011;31738;50.188;8.524;2023-11-21T14:19:13;6.55;;;2.70;;
46006;SDS011;31738;50.188;8.524;2023-11-21T14:21:42;5.57;;;2.55;;
46006;SDS011;31738;50.188;8.524;2023-11-21T14:24:08;7.05;;;2.60;;
46006;SDS011;31738;50.188;8.524;2023-11-21T14:26:35;6.28;;;2.60;;
46006;SDS011;31738;50.188;8.524;2023-11-21T14:29:00;4.47;;;2.53;;
46006;SDS011;31738;50.188;8.524;2023-11-21T14:31:26;6.35;;;2.83;;
46006;SDS011;31738;50.188;8.524;2023-11-21T14:33:53;4.63;;;2.90;;
46006;SDS011;31738;50.188;8.524;2023-11-21T14:36:18;7.07;;;2.58;;
46006;SDS011;31738;50.188;8.524;2023-11-21T14:38:44;6.72;;;2.90;;
46006;SDS011;31738;50.188;8.524;2023-11-21T14:41:09;6.30;;;2.90;;
46006;SDS011;31738;50.188;8.524;2023-11-21T14:43:36;5.05;;;2.60;;
46006;SDS011;31738;50.188;8.524;2023-11-21T14:46:03;8.68;;;2.63;;
46006;SDS011;31738;50.188;8.524;2023-11-21T14:48:31;6.45;;;2.88;;
46006;SDS011;31738;50.188;8.524;2023-11-21T14:51:13;4.97;;;2.53;;
46006;SDS011;31738;50.188;8.524;2023-11-21T14:53:53;4.07;;;2.30;;
46006;SDS011;31738;50.188;8.524;2023-11-21T14:56:22;4.20;;;2.25;;
46006;SDS011;31738;50.188;8.524;2023-11-21T14:58:52;6.75;;;2.60;;
46006;SDS011;31738;50.188;8.524;2023-11-21T15:01:19;6.55;;;2.72;;